Time;durP1;ratioP1;P1;durP2;ratioP2;P2;SDS_P1;SDS_P2;PMS_P1;PMS_P2;Temp;Humidity;BMP_temperature;BMP_pressure;BME280_temperature;BME280_humidity;BME280_pressure;Samples;Min_cycle;Max_cycle;Signal;HPM_P1;HPM_P2
2022/12/11 00:00:14;;;;;;;214.13;36.38;;;;;;;;;;5030219;28;20045;-70
2022/12/11 00:02:40;;;;;;;166.05;33.97;;;;;;;;;;5051612;28;20044;-69
2022/12/11 00:05:06;;;;;;;168.10;33.78;;;;;;;;;;5050427;28;20086;-71
2022/12/11 00:07:32;;;;;;;206.45;36.10;;;;;;;;;;5049790;28;20045;-69
2022/12/11 00:09:59;;;;;;;183.00;35.40;;;;;;;;;;5047758;28;20061;-69
2022/12/11 00:12:25;;;;;;;141.80;32.60;;;;;;;;;;5045960;28;20506;-69
2022/12/11 00:14:51;;;;;;;162.73;34.75;;;;;;;;;;5052284;28;20128;-69
2022/12/11 00:17:17;;;;;;;176.73;35.35;;;;;;;;;;5042164;28;20054;-71
2022/12/11 00:19:43;;;;;;;202.35;34.53;;;;;;;;;;5049039;28;20041;-70
2022/12/11 00:22:09;;;;;;;141.85;32.75;;;;;;;;;;5050106;28;20044;-70
2022/12/11 00:24:35;;;;;;;170.30;34.47;;;;;;;;;;5048298;28;20090;-70
2022/12/11 00:27:01;;;;;;;151.50;34.95;;;;;;;;;;5048878;28;20492;-73
2022/12/11 00:29:27;;;;;;;144.93;34.20;;;;;;;;;;5049252;28;20044;-72
2022/12/11 00:31:53;;;;;;;169.45;35.13;;;;;;;;;;5044366;28;20049;-72
2022/12/11 00:34:19;;;;;;;141.50;33.45;;;;;;;;;;5049908;28;20045;-72
2022/12/11 00:36:45;;;;;;;151.70;34.38;;;;;;;;;;5041185;28;20037;-73
2022/12/11 00:39:11;;;;;;;169.10;34.15;;;;;;;;;;5049456;28;20045;-73
2022/12/11 00:41:37;;;;;;;146.77;33.35;;;;;;;;;;5044928;28;20056;-73
2022/12/11 00:44:03;;;;;;;146.02;32.97;;;;;;;;;;5047539;28;20069;-70
2022/12/11 00:46:29;;;;;;;170.15;32.72;;;;;;;;;;5038076;28;20047;-71
2022/12/11 00:48:55;;;;;;;167.25;34.03;;;;;;;;;;5050207;28;20060;-71
2022/12/11 00:51:21;;;;;;;153.57;35.25;;;;;;;;;;5046907;28;20048;-71
2022/12/11 00:53:47;;;;;;;142.95;33.70;;;;;;;;;;5048147;28;20454;-71
2022/12/11 00:56:17;;;;;;;122.70;32.72;;;;;;;;;;5044267;28;20040;-71
2022/12/11 00:58:44;;;;;;;124.30;31.70;;;;;;;;;;5044868;28;20075;-73
2022/12/11 01:01:12;;;;;;;136.07;32.40;;;;;;;;;;5049664;28;20045;-72
2022/12/11 01:03:38;;;;;;;118.63;31.52;;;;;;;;;;5050353;28;20443;-71
2022/12/11 01:06:05;;;;;;;125.05;31.27;;;;;;;;;;5045233;28;20055;-73
2022/12/11 01:08:31;;;;;;;113.20;31.30;;;;;;;;;;5045110;28;20563;-73
2022/12/11 01:11:00;;;;;;;132.07;32.90;;;;;;;;;;5049441;28;20047;-73
2022/12/11 01:13:26;;;;;;;129.77;31.27;;;;;;;;;;5041617;28;20041;-73
2022/12/11 01:15:52;;;;;;;114.55;29.83;;;;;;;;;;5039025;28;20051;-73
2022/12/11 01:18:18;;;;;;;129.52;32.13;;;;;;;;;;5048571;28;20037;-73
2022/12/11 01:20:44;;;;;;;129.32;32.33;;;;;;;;;;5049760;28;20056;-73
2022/12/11 01:23:14;;;;;;;117.85;30.92;;;;;;;;;;5048110;28;20099;-74
2022/12/11 01:25:41;;;;;;;120.53;32.30;;;;;;;;;;5035552;28;20045;-72
2022/12/11 01:28:08;;;;;;;131.07;30.17;;;;;;;;;;5041884;28;20044;-73
2022/12/11 01:30:35;;;;;;;133.98;31.52;;;;;;;;;;5049158;28;20412;-72
2022/12/11 01:33:01;;;;;;;135.60;31.35;;;;;;;;;;5048672;28;20128;-73
2022/12/11 01:35:28;;;;;;;132.88;30.40;;;;;;;;;;5040657;28;20540;-72
2022/12/11 01:37:54;;;;;;;128.15;30.08;;;;;;;;;;5044916;28;20052;-73
2022/12/11 01:40:20;;;;;;;130.27;30.25;;;;;;;;;;5043210;28;20077;-72
2022/12/11 01:42:46;;;;;;;124.07;29.33;;;;;;;;;;5045158;28;20053;-71
2022/12/11 01:45:22;;;;;;;126.88;29.90;;;;;;;;;;5049177;28;20048;-71
2022/12/11 01:48:00;;;;;;;112.35;29.35;;;;;;;;;;5031015;28;20041;-70
2022/12/11 01:50:27;;;;;;;130.93;30.02;;;;;;;;;;5046895;28;20049;-70
2022/12/11 01:52:53;;;;;;;128.23;29.40;;;;;;;;;;5039470;28;20052;-71
2022/12/11 01:55:20;;;;;;;118.28;30.38;;;;;;;;;;5044642;28;20087;-70
2022/12/11 01:57:47;;;;;;;126.97;30.67;;;;;;;;;;5049850;28;20045;-69
2022/12/11 02:00:14;;;;;;;124.63;30.55;;;;;;;;;;5056015;28;20052;-70
2022/12/11 02:02:40;;;;;;;141.82;30.00;;;;;;;;;;5054574;28;20491;-72
2022/12/11 02:05:06;;;;;;;118.40;29.17;;;;;;;;;;5054606;28;20045;-69
2022/12/11 02:07:37;;;;;;;124.32;30.67;;;;;;;;;;5043656;28;20048;-70
2022/12/11 02:10:03;;;;;;;143.45;30.27;;;;;;;;;;5032993;28;20184;-71
2022/12/11 02:12:29;;;;;;;106.57;29.02;;;;;;;;;;5023622;28;20102;-69
2022/12/11 02:15:05;;;;;;;134.90;30.25;;;;;;;;;;5042334;28;20131;-71
2022/12/11 02:17:34;;;;;;;113.05;30.30;;;;;;;;;;5055699;28;20119;-70
2022/12/11 02:20:06;;;;;;;107.05;28.25;;;;;;;;;;5039167;28;20560;-69
2022/12/11 02:22:32;;;;;;;126.82;29.20;;;;;;;;;;5055172;28;20074;-69
2022/12/11 02:25:13;;;;;;;121.90;29.08;;;;;;;;;;5047922;28;20049;-71
2022/12/11 02:27:47;;;;;;;121.32;30.88;;;;;;;;;;5054555;28;20049;-72
2022/12/11 02:30:15;;;;;;;144.70;30.42;;;;;;;;;;5049739;28;20407;-71
2022/12/11 02:32:52;;;;;;;135.80;30.63;;;;;;;;;;5047238;28;20061;-70
2022/12/11 02:35:24;;;;;;;124.68;30.05;;;;;;;;;;5051468;28;20078;-70
2022/12/11 02:37:54;;;;;;;130.60;29.55;;;;;;;;;;5038752;28;20045;-70
2022/12/11 02:40:22;;;;;;;117.13;29.88;;;;;;;;;;5053788;28;20041;-70
2022/12/11 02:42:49;;;;;;;110.47;29.33;;;;;;;;;;5031162;28;20087;-73
2022/12/11 02:45:15;;;;;;;115.07;28.77;;;;;;;;;;5050335;28;20049;-73
2022/12/11 02:47:43;;;;;;;108.57;28.52;;;;;;;;;;5054087;28;20717;-73
2022/12/11 02:50:12;;;;;;;120.65;30.48;;;;;;;;;;5054830;28;20049;-72
2022/12/11 02:52:39;;;;;;;136.35;30.05;;;;;;;;;;5052647;28;20495;-73
2022/12/11 02:55:06;;;;;;;136.25;31.10;;;;;;;;;;5052057;28;20045;-71
2022/12/11 02:57:38;;;;;;;127.70;31.02;;;;;;;;;;5054333;28;20127;-70
2022/12/11 03:00:05;;;;;;;137.63;30.92;;;;;;;;;;5052172;28;20319;-70
2022/12/11 03:02:31;;;;;;;129.50;29.50;;;;;;;;;;5047013;28;20049;-71
2022/12/11 03:04:58;;;;;;;120.88;30.92;;;;;;;;;;5051986;28;20071;-71
2022/12/11 03:07:25;;;;;;;126.40;31.50;;;;;;;;;;5046728;28;20140;-70
2022/12/11 03:09:51;;;;;;;126.22;31.23;;;;;;;;;;5043568;28;20056;-70
2022/12/11 03:12:23;;;;;;;133.23;31.13;;;;;;;;;;5045483;28;20053;-70
2022/12/11 03:14:50;;;;;;;138.33;31.87;;;;;;;;;;5051457;28;20044;-71
2022/12/11 03:17:19;;;;;;;126.95;31.52;;;;;;;;;;5051338;28;20033;-73
2022/12/11 03:19:48;;;;;;;119.82;30.63;;;;;;;;;;5035477;28;20446;-73
2022/12/11 03:22:23;;;;;;;137.02;30.83;;;;;;;;;;5049612;28;20500;-69
2022/12/11 03:25:00;;;;;;;132.30;31.35;;;;;;;;;;5051506;28;20044;-70
2022/12/11 03:27:27;;;;;;;126.15;31.88;;;;;;;;;;5044491;28;20096;-69
2022/12/11 03:29:57;;;;;;;131.95;31.10;;;;;;;;;;5049312;28;20049;-71
2022/12/11 03:32:26;;;;;;;131.23;31.60;;;;;;;;;;5052632;28;20076;-69
2022/12/11 03:34:56;;;;;;;125.55;30.60;;;;;;;;;;5046879;28;20128;-70
2022/12/11 03:37:23;;;;;;;136.15;29.90;;;;;;;;;;5049551;28;20052;-72
2022/12/11 03:39:51;;;;;;;130.18;30.95;;;;;;;;;;5044343;28;20419;-74
2022/12/11 03:42:19;;;;;;;121.05;30.25;;;;;;;;;;5036435;28;20044;-72
2022/12/11 03:44:47;;;;;;;135.32;31.58;;;;;;;;;;5049501;28;20072;-73
2022/12/11 03:47:15;;;;;;;131.88;31.33;;;;;;;;;;5044677;28;20092;-70
2022/12/11 03:49:43;;;;;;;152.27;33.50;;;;;;;;;;5049870;28;20409;-70
2022/12/11 03:52:10;;;;;;;128.57;31.52;;;;;;;;;;5047358;28;20460;-70
2022/12/11 03:54:37;;;;;;;127.15;32.15;;;;;;;;;;5048579;28;20063;-72
2022/12/11 03:57:04;;;;;;;130.68;31.35;;;;;;;;;;5045128;28;20540;-70
2022/12/11 03:59:30;;;;;;;145.45;33.47;;;;;;;;;;5038347;28;20076;-72
2022/12/11 04:01:56;;;;;;;122.93;32.08;;;;;;;;;;5050687;28;20076;-70
2022/12/11 04:04:22;;;;;;;129.57;30.90;;;;;;;;;;5033641;28;20048;-70
2022/12/11 04:06:48;;;;;;;131.43;32.58;;;;;;;;;;5049693;28;20568;-70
2022/12/11 04:09:14;;;;;;;135.05;31.88;;;;;;;;;;5051587;28;20056;-70
2022/12/11 04:11:41;;;;;;;123.32;32.30;;;;;;;;;;5050790;28;20199;-71
2022/12/11 04:16:57;;;;;;;119.20;30.67;;;;;;;;;;5040572;28;20045;-70
2022/12/11 04:24:54;;;;;;;118.88;30.63;;;;;;;;;;5042530;28;20048;-71
2022/12/11 04:30:06;;;;;;;112.40;30.40;;;;;;;;;;5045780;28;20049;-73
2022/12/11 04:32:32;;;;;;;120.35;30.95;;;;;;;;;;5045458;28;20431;-73
2022/12/11 04:34:58;;;;;;;113.55;30.55;;;;;;;;;;5043305;28;20041;-70
2022/12/11 04:37:24;;;;;;;108.55;30.45;;;;;;;;;;5035038;28;20420;-71
2022/12/11 04:39:50;;;;;;;103.28;30.35;;;;;;;;;;5050272;28;20124;-70
2022/12/11 04:42:16;;;;;;;116.20;30.80;;;;;;;;;;5046719;28;20049;-71
2022/12/11 04:44:42;;;;;;;112.68;30.35;;;;;;;;;;5045905;28;20045;-71
2022/12/11 04:47:08;;;;;;;115.43;30.42;;;;;;;;;;5042375;28;20056;-71
2022/12/11 04:49:34;;;;;;;115.38;31.17;;;;;;;;;;5048688;28;20081;-71
2022/12/11 04:52:00;;;;;;;117.18;30.25;;;;;;;;;;5042137;28;20142;-71
2022/12/11 04:54:28;;;;;;;112.55;30.73;;;;;;;;;;5043007;28;20041;-71
2022/12/11 04:56:54;;;;;;;119.35;29.95;;;;;;;;;;5049838;28;20077;-70
2022/12/11 04:59:20;;;;;;;112.03;30.73;;;;;;;;;;5048679;28;20041;-73
2022/12/11 05:01:47;;;;;;;117.63;29.77;;;;;;;;;;5032973;28;20471;-71
2022/12/11 05:04:13;;;;;;;110.53;29.88;;;;;;;;;;5030726;28;20052;-73
2022/12/11 05:06:39;;;;;;;109.15;29.80;;;;;;;;;;5049485;28;20049;-73
2022/12/11 05:09:05;;;;;;;110.75;30.50;;;;;;;;;;5049917;28;20068;-73
2022/12/11 05:11:32;;;;;;;114.53;29.52;;;;;;;;;;5043231;28;20053;-73
2022/12/11 05:13:58;;;;;;;107.53;29.45;;;;;;;;;;5038766;28;20103;-73
2022/12/11 05:16:24;;;;;;;108.85;29.77;;;;;;;;;;5049440;28;20056;-73
2022/12/11 05:18:50;;;;;;;111.38;28.83;;;;;;;;;;5048871;28;20072;-73
2022/12/11 05:21:16;;;;;;;107.40;28.92;;;;;;;;;;5043255;28;20041;-73
2022/12/11 05:23:42;;;;;;;98.95;29.27;;;;;;;;;;5037143;28;20049;-73
2022/12/11 05:26:11;;;;;;;111.03;29.77;;;;;;;;;;5044506;28;20412;-73
2022/12/11 05:28:38;;;;;;;106.72;27.73;;;;;;;;;;5040254;28;20053;-72
2022/12/11 05:31:10;;;;;;;113.63;29.02;;;;;;;;;;5020369;28;20128;-71
2022/12/11 05:33:36;;;;;;;111.88;27.80;;;;;;;;;;5043293;28;20132;-69
2022/12/11 05:36:03;;;;;;;107.25;28.35;;;;;;;;;;5043534;28;20131;-70
2022/12/11 05:38:29;;;;;;;104.15;29.17;;;;;;;;;;5042166;28;20051;-69
2022/12/11 05:40:56;;;;;;;104.57;28.38;;;;;;;;;;5047529;28;20041;-70
2022/12/11 05:43:22;;;;;;;103.60;28.05;;;;;;;;;;5046731;28;20049;-70
2022/12/11 05:45:48;;;;;;;107.18;27.85;;;;;;;;;;5047331;28;20076;-70
2022/12/11 05:48:14;;;;;;;109.57;29.20;;;;;;;;;;5038208;28;20049;-70
2022/12/11 05:50:40;;;;;;;100.18;27.92;;;;;;;;;;5046226;28;20072;-70
2022/12/11 05:53:06;;;;;;;97.68;27.55;;;;;;;;;;5044536;28;20052;-70
2022/12/11 05:55:36;;;;;;;90.35;28.75;;;;;;;;;;5045462;28;20041;-72
2022/12/11 05:58:02;;;;;;;97.32;28.55;;;;;;;;;;5046022;28;20122;-72
2022/12/11 06:00:28;;;;;;;96.22;27.55;;;;;;;;;;5042889;28;20094;-73
2022/12/11 06:02:54;;;;;;;99.10;28.83;;;;;;;;;;5049202;28;20056;-73
2022/12/11 06:05:20;;;;;;;95.05;27.83;;;;;;;;;;5052574;28;20045;-72
2022/12/11 06:07:46;;;;;;;92.72;28.63;;;;;;;;;;5049213;28;20049;-72
2022/12/11 06:10:12;;;;;;;102.30;28.92;;;;;;;;;;5039127;28;20462;-72
2022/12/11 06:12:38;;;;;;;103.78;28.00;;;;;;;;;;5037017;28;20050;-70
2022/12/11 06:15:04;;;;;;;108.00;28.85;;;;;;;;;;5044350;28;20100;-72
2022/12/11 06:17:30;;;;;;;106.38;28.25;;;;;;;;;;5032041;28;20048;-73
2022/12/11 06:19:56;;;;;;;105.68;27.95;;;;;;;;;;5048227;28;20124;-72
2022/12/11 06:22:22;;;;;;;102.88;28.17;;;;;;;;;;5046026;28;20140;-73
2022/12/11 06:24:48;;;;;;;100.25;29.02;;;;;;;;;;5047788;28;20044;-72
2022/12/11 06:27:14;;;;;;;112.32;28.73;;;;;;;;;;5028902;28;20044;-73
2022/12/11 06:29:40;;;;;;;108.60;29.33;;;;;;;;;;5040686;28;20403;-73
2022/12/11 06:32:06;;;;;;;99.43;28.23;;;;;;;;;;5046426;28;20052;-70
2022/12/11 06:34:32;;;;;;;106.47;29.38;;;;;;;;;;5038570;28;20080;-70
2022/12/11 06:36:58;;;;;;;113.82;30.73;;;;;;;;;;5047161;28;20458;-69
2022/12/11 06:39:24;;;;;;;105.35;28.13;;;;;;;;;;5047339;28;20053;-73
2022/12/11 06:41:50;;;;;;;111.40;30.58;;;;;;;;;;5048398;28;20049;-72
2022/12/11 06:44:16;;;;;;;101.45;28.70;;;;;;;;;;5049243;28;20506;-70
2022/12/11 06:46:42;;;;;;;113.90;30.33;;;;;;;;;;5052786;28;20056;-71
2022/12/11 06:49:08;;;;;;;99.43;29.38;;;;;;;;;;5052051;28;20056;-71
2022/12/11 06:51:34;;;;;;;106.55;29.35;;;;;;;;;;5049337;28;20053;-71
2022/12/11 06:54:00;;;;;;;112.10;29.15;;;;;;;;;;5051278;28;20092;-71
2022/12/11 06:56:26;;;;;;;95.32;28.45;;;;;;;;;;5051357;28;20048;-72
2022/12/11 06:58:52;;;;;;;109.95;29.95;;;;;;;;;;5042530;28;20068;-71
2022/12/11 07:01:18;;;;;;;95.00;29.08;;;;;;;;;;5047473;28;20384;-72
2022/12/11 07:03:44;;;;;;;95.50;27.33;;;;;;;;;;5051722;28;20055;-72
2022/12/11 07:06:10;;;;;;;98.65;28.25;;;;;;;;;;5047332;28;20041;-71
2022/12/11 07:08:36;;;;;;;102.90;27.88;;;;;;;;;;5049760;28;20187;-71
2022/12/11 07:11:13;;;;;;;95.57;28.45;;;;;;;;;;5051559;28;20056;-71
2022/12/11 07:13:40;;;;;;;101.10;27.80;;;;;;;;;;5051075;28;20218;-73
2022/12/11 07:16:09;;;;;;;88.57;26.20;;;;;;;;;;5050317;28;20040;-73
2022/12/11 07:18:36;;;;;;;94.38;27.88;;;;;;;;;;5037230;28;20041;-72
2022/12/11 07:21:03;;;;;;;96.80;28.27;;;;;;;;;;5048263;28;20080;-72
2022/12/11 07:23:28;;;;;;;92.05;28.00;;;;;;;;;;5042832;28;20061;-72
2022/12/11 07:25:55;;;;;;;103.38;28.17;;;;;;;;;;5045912;28;20503;-72
2022/12/11 07:28:21;;;;;;;88.72;26.90;;;;;;;;;;5046795;28;20056;-72
2022/12/11 07:30:47;;;;;;;90.70;28.00;;;;;;;;;;5029184;28;20040;-72
2022/12/11 07:33:13;;;;;;;97.25;29.42;;;;;;;;;;5045307;28;20140;-70
2022/12/11 07:35:39;;;;;;;93.75;27.50;;;;;;;;;;5048744;28;20152;-71
2022/12/11 07:38:05;;;;;;;90.45;27.20;;;;;;;;;;5047132;28;20045;-71
2022/12/11 07:40:32;;;;;;;97.50;28.00;;;;;;;;;;5051876;28;20060;-71
2022/12/11 07:42:59;;;;;;;93.22;28.42;;;;;;;;;;5030541;28;20053;-69
2022/12/11 07:45:25;;;;;;;92.63;28.10;;;;;;;;;;5048682;28;20129;-69
2022/12/11 07:47:51;;;;;;;88.90;27.20;;;;;;;;;;5043420;28;20049;-70
2022/12/11 07:50:17;;;;;;;96.47;26.90;;;;;;;;;;5047914;28;20049;-70
2022/12/11 07:52:43;;;;;;;96.13;28.13;;;;;;;;;;5050834;28;20626;-70
2022/12/11 07:55:09;;;;;;;92.07;28.17;;;;;;;;;;5050495;28;20045;-69
2022/12/11 07:57:36;;;;;;;100.80;27.38;;;;;;;;;;5042385;28;20050;-69
2022/12/11 08:00:02;;;;;;;103.65;29.60;;;;;;;;;;5046414;28;20152;-72
2022/12/11 08:02:28;;;;;;;98.60;29.77;;;;;;;;;;5050760;28;20044;-71
2022/12/11 08:04:54;;;;;;;97.20;28.60;;;;;;;;;;5033732;28;20045;-71
2022/12/11 08:07:20;;;;;;;92.15;28.08;;;;;;;;;;5032269;28;20052;-73
2022/12/11 08:09:46;;;;;;;100.65;29.98;;;;;;;;;;5051114;28;20130;-73
2022/12/11 08:12:12;;;;;;;118.38;30.60;;;;;;;;;;5050370;28;20041;-72
2022/12/11 08:14:38;;;;;;;109.40;29.80;;;;;;;;;;5048932;28;20412;-72
2022/12/11 08:17:04;;;;;;;99.05;29.17;;;;;;;;;;5046335;28;20053;-69
2022/12/11 08:19:30;;;;;;;103.70;30.35;;;;;;;;;;5036568;28;20042;-69
2022/12/11 08:21:56;;;;;;;117.35;29.55;;;;;;;;;;5037387;28;20045;-69
2022/12/11 08:24:22;;;;;;;121.13;30.05;;;;;;;;;;5047840;28;20072;-69
2022/12/11 08:26:48;;;;;;;103.32;29.83;;;;;;;;;;5044007;28;20094;-69
2022/12/11 08:29:14;;;;;;;97.15;29.17;;;;;;;;;;5042297;28;20052;-69
2022/12/11 08:31:41;;;;;;;120.82;30.00;;;;;;;;;;5046682;28;20532;-69
2022/12/11 08:34:07;;;;;;;103.10;29.95;;;;;;;;;;5047249;28;20095;-71
2022/12/11 08:36:33;;;;;;;103.93;30.20;;;;;;;;;;5052216;28;20048;-73
2022/12/11 08:38:59;;;;;;;100.72;30.42;;;;;;;;;;5047671;28;20123;-72
2022/12/11 08:41:27;;;;;;;108.72;29.33;;;;;;;;;;5045783;28;20041;-72
2022/12/11 08:43:53;;;;;;;114.45;29.38;;;;;;;;;;5042058;28;20523;-73
2022/12/11 08:46:21;;;;;;;118.43;31.70;;;;;;;;;;5032366;28;20037;-71
2022/12/11 08:48:47;;;;;;;116.68;30.00;;;;;;;;;;5041696;28;20124;-69
2022/12/11 08:51:14;;;;;;;108.03;30.00;;;;;;;;;;5042243;28;20045;-68
2022/12/11 08:53:40;;;;;;;114.90;30.02;;;;;;;;;;5049306;28;20041;-72
2022/12/11 08:56:08;;;;;;;94.78;28.25;;;;;;;;;;5048677;28;20091;-73
2022/12/11 08:58:35;;;;;;;107.05;29.90;;;;;;;;;;5045031;28;20052;-73
2022/12/11 09:01:05;;;;;;;108.82;29.38;;;;;;;;;;5044417;28;20063;-72
2022/12/11 09:03:31;;;;;;;114.78;31.15;;;;;;;;;;5044105;28;20048;-72
2022/12/11 09:05:57;;;;;;;110.93;32.35;;;;;;;;;;5046788;28;20045;-72
2022/12/11 09:08:23;;;;;;;98.63;30.38;;;;;;;;;;5044052;28;20467;-72
2022/12/11 09:10:49;;;;;;;103.50;30.35;;;;;;;;;;5030822;28;20065;-72
2022/12/11 09:13:15;;;;;;;98.80;30.60;;;;;;;;;;5046824;28;20135;-71
2022/12/11 09:15:41;;;;;;;101.50;29.63;;;;;;;;;;5041226;28;20048;-71
2022/12/11 09:18:07;;;;;;;96.88;28.75;;;;;;;;;;5043563;28;20079;-72
2022/12/11 09:20:33;;;;;;;105.80;29.95;;;;;;;;;;5047917;28;20447;-69
2022/12/11 09:23:00;;;;;;;95.65;29.02;;;;;;;;;;5044288;28;20045;-73
2022/12/11 09:25:26;;;;;;;95.75;28.63;;;;;;;;;;5040877;28;20411;-73
2022/12/11 09:27:52;;;;;;;95.47;29.20;;;;;;;;;;5038934;28;20171;-69
2022/12/11 09:30:18;;;;;;;104.75;29.42;;;;;;;;;;5038705;28;20509;-71
2022/12/11 09:32:44;;;;;;;86.15;28.20;;;;;;;;;;5043555;28;20522;-71
2022/12/11 09:35:10;;;;;;;96.60;30.33;;;;;;;;;;5041263;28;20037;-70
2022/12/11 09:37:36;;;;;;;86.22;29.02;;;;;;;;;;5040832;28;20037;-71
2022/12/11 09:40:03;;;;;;;95.13;28.35;;;;;;;;;;5044721;28;20048;-72
2022/12/11 09:42:39;;;;;;;99.13;28.13;;;;;;;;;;5042316;28;20063;-72
2022/12/11 09:45:06;;;;;;;87.07;27.50;;;;;;;;;;5027587;28;20045;-70
2022/12/11 09:47:35;;;;;;;84.53;27.33;;;;;;;;;;5042226;28;20391;-72
2022/12/11 09:50:04;;;;;;;89.85;27.95;;;;;;;;;;5020902;28;20041;-72
2022/12/11 09:52:30;;;;;;;92.05;27.38;;;;;;;;;;5028944;28;20037;-72
2022/12/11 09:54:58;;;;;;;88.97;27.52;;;;;;;;;;5046648;28;20513;-72
2022/12/11 09:57:24;;;;;;;96.32;27.70;;;;;;;;;;5042559;28;20049;-71
2022/12/11 10:00:19;;;;;;;93.93;27.52;;;;;;;;;;5047215;28;20098;-71
2022/12/11 10:02:45;;;;;;;83.47;26.33;;;;;;;;;;5027958;28;20037;-73
2022/12/11 10:05:30;;;;;;;88.63;27.73;;;;;;;;;;5045038;28;20053;-70
2022/12/11 10:07:59;;;;;;;89.90;25.33;;;;;;;;;;5042344;28;20048;-73
2022/12/11 10:10:44;;;;;;;77.18;25.98;;;;;;;;;;5042979;28;20056;-73
2022/12/11 10:13:28;;;;;;;83.82;26.45;;;;;;;;;;5046961;28;20067;-73
2022/12/11 10:16:16;;;;;;;84.10;26.45;;;;;;;;;;5036507;28;20132;-70
2022/12/11 10:18:42;;;;;;;93.90;28.55;;;;;;;;;;5047284;28;20041;-72
2022/12/11 10:21:09;;;;;;;82.45;27.45;;;;;;;;;;5049599;28;20130;-71
2022/12/11 10:23:42;;;;;;;85.60;26.80;;;;;;;;;;5051715;28;20043;-71
2022/12/11 10:26:16;;;;;;;83.35;27.00;;;;;;;;;;5052781;28;20045;-70
2022/12/11 10:28:42;;;;;;;82.70;25.80;;;;;;;;;;5025270;28;20067;-71
2022/12/11 10:31:34;;;;;;;80.57;26.63;;;;;;;;;;5052506;28;20060;-70
2022/12/11 10:34:02;;;;;;;80.22;25.95;;;;;;;;;;5045840;28;20050;-73
2022/12/11 10:36:33;;;;;;;78.82;25.35;;;;;;;;;;5046469;28;20045;-70
2022/12/11 10:38:59;;;;;;;87.10;26.65;;;;;;;;;;5033985;28;20041;-71
2022/12/11 10:41:32;;;;;;;83.15;26.10;;;;;;;;;;5050096;28;20144;-71
2022/12/11 10:44:00;;;;;;;93.13;26.75;;;;;;;;;;5043953;28;20132;-70
2022/12/11 10:46:28;;;;;;;78.82;25.70;;;;;;;;;;5044600;28;20049;-76
2022/12/11 10:48:58;;;;;;;102.43;26.90;;;;;;;;;;5049418;28;20072;-76
2022/12/11 10:51:32;;;;;;;85.45;26.52;;;;;;;;;;5025930;28;20389;-76
2022/12/11 10:54:05;;;;;;;92.13;26.90;;;;;;;;;;5048868;28;20049;-78
2022/12/11 10:56:32;;;;;;;89.43;26.98;;;;;;;;;;5047187;28;20047;-77
2022/12/11 10:58:59;;;;;;;74.72;25.65;;;;;;;;;;5045119;28;20041;-76
2022/12/11 11:01:27;;;;;;;86.25;27.98;;;;;;;;;;5038410;28;20046;-77
2022/12/11 11:03:55;;;;;;;81.35;26.38;;;;;;;;;;5047446;28;20128;-77
2022/12/11 11:06:21;;;;;;;91.30;27.17;;;;;;;;;;5043972;28;20045;-76
2022/12/11 11:08:49;;;;;;;81.80;26.98;;;;;;;;;;5046377;28;20045;-75
2022/12/11 11:11:20;;;;;;;86.13;26.73;;;;;;;;;;5031551;28;20110;-76
2022/12/11 11:13:47;;;;;;;89.30;27.52;;;;;;;;;;5047706;28;20045;-77
2022/12/11 11:16:15;;;;;;;93.30;27.67;;;;;;;;;;5045956;28;20179;-77
2022/12/11 11:18:42;;;;;;;73.60;25.25;;;;;;;;;;5032392;28;20044;-75
2022/12/11 11:21:16;;;;;;;79.30;26.88;;;;;;;;;;5042306;28;20141;-75
2022/12/11 11:23:42;;;;;;;83.03;28.02;;;;;;;;;;5049071;28;20179;-75
2022/12/11 11:26:08;;;;;;;94.90;27.88;;;;;;;;;;5044176;28;20037;-75
2022/12/11 11:28:37;;;;;;;97.50;28.15;;;;;;;;;;5045131;28;20045;-75
2022/12/11 11:31:07;;;;;;;89.90;27.73;;;;;;;;;;5046793;28;20079;-75
2022/12/11 11:33:34;;;;;;;78.93;26.98;;;;;;;;;;5047402;28;20425;-74
2022/12/11 11:36:01;;;;;;;88.30;27.73;;;;;;;;;;5029433;28;20099;-76
2022/12/11 11:38:29;;;;;;;83.78;28.15;;;;;;;;;;5041719;28;20099;-76
2022/12/11 11:40:59;;;;;;;83.22;27.08;;;;;;;;;;5043988;28;20033;-75
2022/12/11 11:43:45;;;;;;;82.55;27.05;;;;;;;;;;5043381;28;20507;-76
2022/12/11 11:46:21;;;;;;;86.97;28.88;;;;;;;;;;5031163;28;20045;-75
2022/12/11 11:48:51;;;;;;;89.95;29.48;;;;;;;;;;5044285;28;20068;-74
2022/12/11 11:51:37;;;;;;;85.57;27.40;;;;;;;;;;5048071;28;20496;-75
2022/12/11 11:54:07;;;;;;;89.95;28.65;;;;;;;;;;5056284;28;20045;-74
2022/12/11 11:56:36;;;;;;;92.28;28.83;;;;;;;;;;5034441;28;20090;-74
2022/12/11 11:59:18;;;;;;;88.93;28.00;;;;;;;;;;5028410;28;20049;-74
2022/12/11 12:01:44;;;;;;;84.65;26.90;;;;;;;;;;5023721;28;20056;-75
2022/12/11 12:04:10;;;;;;;82.63;28.42;;;;;;;;;;5038880;28;20053;-74
2022/12/11 12:06:57;;;;;;;93.78;29.35;;;;;;;;;;5038315;28;20045;-75
2022/12/11 12:09:23;;;;;;;80.80;26.48;;;;;;;;;;5040563;28;20049;-74
2022/12/11 12:12:02;;;;;;;85.45;27.58;;;;;;;;;;5042479;28;20060;-73
2022/12/11 12:14:28;;;;;;;84.00;28.38;;;;;;;;;;5022837;28;20504;-73
2022/12/11 12:17:05;;;;;;;93.07;28.83;;;;;;;;;;5034988;28;20967;-74
2022/12/11 12:19:37;;;;;;;88.70;28.50;;;;;;;;;;5020802;28;20037;-73
2022/12/11 12:22:22;;;;;;;83.43;28.65;;;;;;;;;;5037688;28;20124;-73
2022/12/11 12:24:52;;;;;;;81.78;29.15;;;;;;;;;;5022058;28;20053;-74
2022/12/11 12:27:18;;;;;;;87.28;29.88;;;;;;;;;;5039436;28;20091;-72
2022/12/11 12:29:44;;;;;;;90.75;30.42;;;;;;;;;;5037470;28;20048;-74
2022/12/11 12:32:13;;;;;;;86.70;30.05;;;;;;;;;;5040451;28;20421;-75
2022/12/11 12:34:52;;;;;;;95.72;31.50;;;;;;;;;;5036138;28;20151;-72
2022/12/11 12:37:38;;;;;;;90.82;30.45;;;;;;;;;;5041177;28;20037;-74
2022/12/11 12:40:07;;;;;;;86.22;30.30;;;;;;;;;;5039414;28;20052;-74
2022/12/11 12:42:52;;;;;;;84.95;32.00;;;;;;;;;;5039843;28;20037;-74
2022/12/11 12:45:40;;;;;;;85.10;31.17;;;;;;;;;;5027926;28;20068;-72
2022/12/11 12:48:07;;;;;;;87.75;29.85;;;;;;;;;;5042222;28;20029;-73
2022/12/11 12:50:44;;;;;;;84.03;30.27;;;;;;;;;;5039597;28;20045;-74
2022/12/11 12:53:15;;;;;;;81.63;29.52;;;;;;;;;;5039551;28;20508;-74
2022/12/11 12:55:42;;;;;;;80.72;31.33;;;;;;;;;;5031788;28;20552;-73
2022/12/11 12:58:23;;;;;;;83.82;30.15;;;;;;;;;;5038076;28;20045;-73
2022/12/11 13:00:50;;;;;;;79.45;30.83;;;;;;;;;;5040231;28;20080;-73
2022/12/11 13:03:19;;;;;;;80.78;29.63;;;;;;;;;;5040956;28;20514;-73
2022/12/11 13:06:06;;;;;;;84.72;31.10;;;;;;;;;;5025034;28;20052;-72
2022/12/11 13:08:41;;;;;;;79.22;28.92;;;;;;;;;;5043624;28;20047;-71
2022/12/11 13:11:11;;;;;;;81.85;30.02;;;;;;;;;;5040650;28;20045;-71
2022/12/11 13:13:39;;;;;;;79.38;29.58;;;;;;;;;;5038966;28;20053;-69
2022/12/11 13:16:08;;;;;;;75.15;28.88;;;;;;;;;;5040034;28;20041;-68
2022/12/11 13:18:38;;;;;;;83.40;30.70;;;;;;;;;;5037332;28;20048;-67
2022/12/11 13:21:24;;;;;;;80.53;29.40;;;;;;;;;;5040802;28;20052;-68
2022/12/11 13:23:50;;;;;;;75.00;29.63;;;;;;;;;;5040450;28;20053;-70
2022/12/11 13:26:27;;;;;;;72.35;28.08;;;;;;;;;;5039157;28;20036;-68
2022/12/11 13:28:53;;;;;;;70.68;29.17;;;;;;;;;;5041271;28;20055;-69
2022/12/11 13:31:19;;;;;;;77.43;29.23;;;;;;;;;;5042272;28;20049;-68
2022/12/11 13:33:50;;;;;;;70.82;28.45;;;;;;;;;;5042148;28;20056;-68
2022/12/11 13:36:19;;;;;;;66.03;28.92;;;;;;;;;;5040268;28;20049;-69
2022/12/11 13:39:02;;;;;;;70.63;29.05;;;;;;;;;;5040593;28;20689;-67
2022/12/11 13:41:29;;;;;;;66.07;27.48;;;;;;;;;;5041816;28;20460;-68
2022/12/11 13:43:57;;;;;;;60.47;28.67;;;;;;;;;;5041613;28;20065;-70
2022/12/11 13:46:31;;;;;;;59.72;27.65;;;;;;;;;;5041984;28;20053;-70
2022/12/11 13:49:00;;;;;;;57.42;27.13;;;;;;;;;;5042432;28;20045;-68
2022/12/11 13:51:28;;;;;;;53.17;25.90;;;;;;;;;;5032044;28;20057;-72
2022/12/11 13:54:14;;;;;;;54.88;26.25;;;;;;;;;;5041414;28;20423;-67
2022/12/11 13:56:40;;;;;;;49.70;24.67;;;;;;;;;;5037416;28;20052;-70
2022/12/11 13:59:19;;;;;;;52.55;24.98;;;;;;;;;;5040000;28;20037;-68
2022/12/11 14:01:45;;;;;;;48.22;24.08;;;;;;;;;;5041038;28;20041;-70
2022/12/11 14:04:15;;;;;;;44.17;22.92;;;;;;;;;;5042059;28;20044;-70
2022/12/11 14:06:41;;;;;;;46.40;22.38;;;;;;;;;;5041455;28;20060;-69
2022/12/11 14:09:07;;;;;;;48.92;22.98;;;;;;;;;;5037849;28;20052;-70
2022/12/11 14:11:35;;;;;;;45.53;21.42;;;;;;;;;;5038768;28;20052;-69
2022/12/11 14:14:02;;;;;;;42.92;21.83;;;;;;;;;;5042251;28;20060;-69
2022/12/11 14:16:29;;;;;;;41.45;21.67;;;;;;;;;;5043770;28;20036;-70
2022/12/11 14:18:57;;;;;;;40.15;20.75;;;;;;;;;;5040121;28;20059;-70
2022/12/11 14:21:24;;;;;;;44.72;22.23;;;;;;;;;;5023231;28;20057;-70
2022/12/11 14:23:57;;;;;;;40.95;21.65;;;;;;;;;;5040150;28;20144;-69
2022/12/11 14:26:28;;;;;;;45.47;21.30;;;;;;;;;;5044129;28;20522;-68
2022/12/11 14:28:54;;;;;;;40.50;21.30;;;;;;;;;;5041162;28;20355;-68